createdAt,value
2022-11-18T00:01:17.804Z,2.00
2022-11-18T00:03:45.669Z,2.00
2022-11-18T00:06:15.817Z,2.00
2022-11-18T00:08:42.792Z,2.03
2022-11-18T00:11:12.946Z,2.37
2022-11-18T00:13:59.396Z,2.67
2022-11-18T00:16:26.137Z,2.23
2022-11-18T00:18:52.860Z,1.90
2022-11-18T00:21:19.680Z,2.47
2022-11-18T00:23:49.091Z,1.97
2022-11-18T00:26:15.847Z,2.07
2022-11-18T00:28:42.846Z,1.97
2022-11-18T00:31:13.079Z,2.00
2022-11-18T00:33:40.595Z,1.90
2022-11-18T00:36:10.808Z,1.63
2022-11-18T00:38:37.884Z,1.80
2022-11-18T00:41:06.447Z,2.30
2022-11-18T00:43:34.060Z,2.03
2022-11-18T00:46:00.829Z,1.97
2022-11-18T00:48:28.060Z,1.80
2022-11-18T00:50:56.806Z,2.20
2022-11-18T00:53:24.915Z,1.80
2022-11-18T00:55:52.180Z,2.10
2022-11-18T00:58:19.682Z,2.43
2022-11-18T01:00:50.334Z,1.80
2022-11-18T01:03:17.781Z,2.20
2022-11-18T01:05:44.723Z,1.70
2022-11-18T01:08:12.893Z,2.33
2022-11-18T01:10:40.999Z,1.90
2022-11-18T01:13:23.023Z,2.80
2022-11-18T01:15:57.936Z,1.90
2022-11-18T01:18:28.096Z,2.00
2022-11-18T01:20:59.907Z,1.90
2022-11-18T01:23:26.829Z,2.00
2022-11-18T01:25:53.861Z,2.20
2022-11-18T01:28:23.944Z,2.13
2022-11-18T01:30:51.095Z,2.03
2022-11-18T01:33:17.937Z,1.97
2022-11-18T01:35:45.219Z,2.17
2022-11-18T01:38:14.315Z,2.77
2022-11-18T01:40:41.981Z,2.23
2022-11-18T01:43:17.857Z,2.50
2022-11-18T01:45:46.964Z,2.23
2022-11-18T01:48:26.424Z,2.33
2022-11-18T01:50:59.048Z,2.60
2022-11-18T01:53:29.913Z,2.90
2022-11-18T01:55:59.656Z,3.10
2022-11-18T01:58:41.339Z,2.70
2022-11-18T02:01:08.695Z,2.43
2022-11-18T02:03:36.503Z,2.40
2022-11-18T02:06:04.906Z,2.50
2022-11-18T02:08:32.940Z,2.77
2022-11-18T02:10:59.683Z,3.03
2022-11-18T02:13:26.465Z,2.60
2022-11-18T02:16:02.006Z,2.83
2022-11-18T02:18:35.576Z,3.20
2022-11-18T02:21:55.688Z,2.60
2022-11-18T02:24:28.782Z,2.23
2022-11-18T02:27:09.123Z,2.60
2022-11-18T02:30:10.697Z,2.33
2022-11-18T02:33:18.066Z,2.73
2022-11-18T02:35:51.775Z,2.70
2022-11-18T02:38:35.728Z,1.97
2022-11-18T02:41:08.162Z,2.93
2022-11-18T02:43:56.974Z,2.27
2022-11-18T02:46:36.043Z,2.07
2022-11-18T02:49:08.524Z,2.20
2022-11-18T02:51:36.371Z,2.00
2022-11-18T02:54:06.501Z,2.20
2022-11-18T02:56:35.793Z,1.93
2022-11-18T02:59:03.823Z,2.00
2022-11-18T03:01:33.178Z,2.07
2022-11-18T03:03:59.991Z,2.23
2022-11-18T03:06:35.449Z,2.10
2022-11-18T03:09:14.041Z,2.40
2022-11-18T03:11:54.113Z,2.17
2022-11-18T03:14:33.230Z,2.40
2022-11-18T03:17:08.884Z,3.13
2022-11-18T03:19:54.451Z,2.03
2022-11-18T03:22:55.789Z,2.10
2022-11-18T03:25:47.740Z,2.67
2022-11-18T03:28:48.398Z,1.90
2022-11-18T03:31:23.126Z,2.20
2022-11-18T03:33:56.521Z,2.30
2022-11-18T03:36:28.397Z,1.90
2022-11-18T03:38:59.217Z,2.00
2022-11-18T03:41:28.047Z,1.90
2022-11-18T03:44:00.577Z,1.70
2022-11-18T03:46:40.781Z,2.23
2022-11-18T03:49:12.009Z,1.87
2022-11-18T03:51:51.796Z,1.80
2022-11-18T03:54:29.586Z,1.93
2022-11-18T03:57:09.482Z,2.50
2022-11-18T03:59:41.364Z,2.70
2022-11-18T04:02:21.084Z,1.97
2022-11-18T04:04:51.234Z,2.97
2022-11-18T04:07:24.084Z,3.57
2022-11-18T04:10:11.079Z,2.97
2022-11-18T04:12:47.288Z,3.33
2022-11-18T04:15:14.140Z,3.40
2022-11-18T04:17:43.075Z,2.83
2022-11-18T04:20:18.986Z,2.63
2022-11-18T04:22:46.178Z,2.80
2022-11-18T04:25:13.571Z,2.60
2022-11-18T04:27:40.301Z,2.50
2022-11-18T04:30:08.443Z,3.00
2022-11-18T04:32:35.438Z,3.20
2022-11-18T04:35:02.433Z,2.87
2022-11-18T04:37:29.251Z,2.50
2022-11-18T04:39:56.022Z,2.53
2022-11-18T04:42:22.983Z,1.90
2022-11-18T04:44:49.735Z,1.87
2022-11-18T04:47:16.466Z,2.20
2022-11-18T04:49:43.407Z,2.50
2022-11-18T04:52:10.190Z,2.13
2022-11-18T04:54:36.977Z,2.10
2022-11-18T04:57:04.146Z,2.13
2022-11-18T04:59:31.234Z,2.30
2022-11-18T05:01:59.464Z,2.13
2022-11-18T05:04:30.232Z,2.43
2022-11-18T05:06:57.538Z,2.67
2022-11-18T05:09:28.804Z,2.07
2022-11-18T05:12:17.088Z,2.33
2022-11-18T05:14:49.308Z,2.07
2022-11-18T05:17:17.599Z,2.47
2022-11-18T05:19:44.349Z,2.77
2022-11-18T05:22:11.121Z,2.77
2022-11-18T05:24:38.212Z,2.90
2022-11-18T05:27:04.957Z,2.30
2022-11-18T05:29:31.736Z,2.80
2022-11-18T05:31:58.484Z,2.30
2022-11-18T05:34:25.711Z,2.83
2022-11-18T05:36:52.520Z,2.50
2022-11-18T05:39:19.661Z,2.50
2022-11-18T05:42:05.675Z,2.00
2022-11-18T05:44:32.431Z,2.43
2022-11-18T05:47:00.344Z,2.20
2022-11-18T05:49:27.171Z,2.63
2022-11-18T05:51:53.925Z,2.40
2022-11-18T05:54:21.732Z,5.27
2022-11-18T05:56:48.836Z,5.13
2022-11-18T05:59:16.228Z,2.73
2022-11-18T06:57:29.492Z,2.17
2022-11-18T07:00:00.722Z,2.30
2022-11-18T07:02:28.743Z,2.10
2022-11-18T07:04:55.519Z,2.47
2022-11-18T07:07:22.336Z,2.50
2022-11-18T07:09:49.522Z,2.50
2022-11-18T07:12:16.291Z,3.20
2022-11-18T07:14:43.007Z,3.17
2022-11-18T07:17:09.829Z,2.40
2022-11-18T07:19:36.577Z,2.27
2022-11-18T07:22:03.337Z,2.50
2022-11-18T07:24:30.064Z,2.40
2022-11-18T07:26:56.816Z,2.37
2022-11-18T07:29:23.574Z,2.97
2022-11-18T07:31:50.320Z,2.43
2022-11-18T07:34:17.328Z,2.80
2022-11-18T07:36:44.148Z,3.23
2022-11-18T07:39:10.985Z,3.47
2022-11-18T07:41:39.688Z,3.60
2022-11-18T07:44:07.515Z,3.27
2022-11-18T07:46:36.605Z,3.43
2022-11-18T07:49:06.001Z,4.30
2022-11-18T07:51:35.898Z,3.10
2022-11-18T07:54:07.531Z,3.10
2022-11-18T07:56:34.314Z,3.53
2022-11-18T07:59:01.093Z,3.37
2022-11-18T08:01:29.827Z,3.10
2022-11-18T08:03:58.142Z,3.60
2022-11-18T08:06:25.162Z,3.30
2022-11-18T08:08:52.469Z,3.83
2022-11-18T08:11:22.901Z,3.80
2022-11-18T08:13:51.691Z,3.87
2022-11-18T08:16:21.415Z,4.47
2022-11-18T08:18:48.550Z,4.07
2022-11-18T08:21:16.344Z,3.97
2022-11-18T08:23:43.609Z,4.27
2022-11-18T08:26:14.615Z,4.50
2022-11-18T08:28:43.059Z,3.40
2022-11-18T08:31:17.757Z,4.30
2022-11-18T08:33:44.732Z,3.13
2022-11-18T08:36:19.249Z,3.83
2022-11-18T08:38:46.080Z,3.43
2022-11-18T08:41:14.476Z,2.93
2022-11-18T08:43:41.690Z,3.20
2022-11-18T08:46:08.458Z,3.50
2022-11-18T08:48:35.262Z,3.10
2022-11-18T08:51:02.349Z,2.70
2022-11-18T08:53:29.124Z,2.27
2022-11-18T08:56:00.119Z,2.40
2022-11-18T08:58:27.669Z,2.30
2022-11-18T09:00:55.231Z,3.00
2022-11-18T09:03:23.035Z,2.40
2022-11-18T09:05:50.391Z,2.93
2022-11-18T09:08:17.142Z,2.37
2022-11-18T09:10:43.930Z,2.17
2022-11-18T09:13:53.308Z,2.43
2022-11-18T09:16:01.564Z,2.20
2022-11-18T09:18:28.400Z,3.10
2022-11-18T09:21:02.743Z,2.30
2022-11-18T09:23:29.504Z,2.10
2022-11-18T09:26:04.330Z,2.83
2022-11-18T09:28:31.662Z,2.80
2022-11-18T09:30:58.682Z,2.40
2022-11-18T09:33:25.460Z,2.43
2022-11-18T09:35:52.268Z,1.83
2022-11-18T09:38:19.053Z,2.37
2022-11-18T09:40:58.902Z,2.60
2022-11-18T09:43:44.629Z,2.60
2022-11-18T09:46:38.138Z,2.37
2022-11-18T09:49:14.955Z,2.50
2022-11-18T09:51:47.933Z,2.67
2022-11-18T09:54:25.878Z,3.17
2022-11-18T09:56:55.064Z,3.00
2022-11-18T09:59:24.881Z,1.83
2022-11-18T10:01:54.778Z,2.43
2022-11-18T10:04:22.001Z,2.33
2022-11-18T10:06:50.018Z,2.30
2022-11-18T10:09:25.788Z,2.40
2022-11-18T10:12:11.029Z,1.73
2022-11-18T10:15:14.685Z,2.00
2022-11-18T10:17:51.428Z,1.87
2022-11-18T10:20:33.374Z,1.97
2022-11-18T10:23:09.181Z,1.43
2022-11-18T10:25:35.939Z,2.17
2022-11-18T10:28:20.916Z,1.87
2022-11-18T10:30:47.761Z,1.87
2022-11-18T10:33:24.913Z,2.10
2022-11-18T10:36:08.929Z,2.67
2022-11-18T10:38:35.841Z,1.83
2022-11-18T10:41:09.408Z,1.43
2022-11-18T10:43:54.370Z,1.47
2022-11-18T10:46:28.089Z,2.13
2022-11-18T10:49:06.765Z,2.27
2022-11-18T10:51:33.536Z,1.60
2022-11-18T10:54:13.879Z,1.20
2022-11-18T10:56:57.567Z,1.60
2022-11-18T10:59:40.249Z,2.23
2022-11-18T11:02:31.107Z,1.97
2022-11-18T11:04:59.428Z,1.93
2022-11-18T11:07:26.294Z,1.47
2022-11-18T11:10:05.080Z,2.23
2022-11-18T11:12:39.013Z,1.53
2022-11-18T11:15:12.407Z,2.23
2022-11-18T11:17:45.722Z,2.33
2022-11-18T11:20:22.856Z,2.13
2022-11-18T11:22:50.050Z,2.03
2022-11-18T11:28:41.919Z,2.47
2022-11-18T11:31:11.896Z,1.90
2022-11-18T11:34:26.882Z,2.23
2022-11-18T11:37:19.412Z,2.40
2022-11-18T11:39:54.021Z,2.63
2022-11-18T11:42:32.068Z,2.90
2022-11-18T11:45:13.937Z,2.10
2022-11-18T11:47:59.235Z,2.47
2022-11-18T11:51:03.425Z,2.37
2022-11-18T11:53:46.748Z,2.10
2022-11-18T11:56:34.999Z,2.60
2022-11-18T11:59:11.125Z,2.40
2022-11-18T12:01:52.538Z,2.83
2022-11-18T12:04:29.361Z,2.83
2022-11-18T12:06:58.078Z,2.80
2022-11-18T12:09:33.696Z,1.70
2022-11-18T12:12:29.534Z,4.60
2022-11-18T12:15:11.521Z,2.73
2022-11-18T12:18:13.496Z,2.30
2022-11-18T12:20:49.398Z,3.50
2022-11-18T12:23:24.794Z,2.60
2022-11-18T12:25:54.621Z,2.63
2022-11-18T12:28:25.444Z,2.63
2022-11-18T12:31:18.277Z,2.33
2022-11-18T12:33:53.262Z,1.53
2022-11-18T12:36:36.712Z,1.97
2022-11-18T12:39:27.747Z,3.53
2022-11-18T12:42:23.726Z,2.43
2022-11-18T12:44:52.469Z,2.13
2022-11-18T12:47:40.324Z,2.80
2022-11-18T12:50:15.160Z,2.70
2022-11-18T12:52:41.845Z,2.97
2022-11-18T12:55:30.426Z,2.97
2022-11-18T12:57:57.170Z,2.90
2022-11-18T13:00:23.870Z,2.77
2022-11-18T13:02:56.034Z,3.23
2022-11-18T13:05:25.105Z,2.63
2022-11-18T13:08:15.115Z,2.43
2022-11-18T13:11:18.122Z,3.93
2022-11-18T13:13:46.077Z,2.80
2022-11-18T13:16:43.206Z,3.97
2022-11-18T13:19:20.706Z,3.30
2022-11-18T13:22:16.615Z,3.60
2022-11-18T13:24:51.646Z,4.10
2022-11-18T13:28:00.721Z,6.83
2022-11-18T13:30:28.603Z,3.10
2022-11-18T13:32:58.729Z,2.50
2022-11-18T13:35:27.460Z,2.87
2022-11-18T13:37:57.591Z,2.57
2022-11-18T13:41:04.331Z,2.40
2022-11-18T13:43:32.422Z,5.60
2022-11-18T13:46:07.087Z,3.80
2022-11-18T13:48:37.339Z,2.73
2022-11-18T13:51:04.536Z,2.30
2022-11-18T13:53:38.292Z,2.50
2022-11-18T13:56:33.247Z,2.23
2022-11-18T13:59:18.409Z,1.70
2022-11-18T14:01:47.039Z,1.60
2022-11-18T14:04:25.776Z,3.27
2022-11-18T14:06:52.593Z,4.10
2022-11-18T14:09:23.047Z,5.07
2022-11-18T14:12:03.419Z,5.80
2022-11-18T14:14:41.719Z,2.57
2022-11-18T14:17:28.103Z,2.77
2022-11-18T14:19:59.598Z,1.93
2022-11-18T14:22:28.533Z,1.83
2022-11-18T14:24:56.723Z,1.93
2022-11-18T14:27:45.291Z,2.03
2022-11-18T14:30:34.852Z,3.00
2022-11-18T14:33:20.807Z,2.63
2022-11-18T14:35:55.785Z,2.70
2022-11-18T14:39:04.423Z,2.90
2022-11-18T14:41:47.376Z,3.57
2022-11-18T14:44:14.496Z,4.67
2022-11-18T14:46:43.828Z,3.60
2022-11-18T14:49:18.713Z,2.77
2022-11-18T14:51:46.954Z,2.70
2022-11-18T14:54:17.226Z,3.50
2022-11-18T14:56:49.302Z,3.70
2022-11-18T14:59:18.719Z,3.20
2022-11-18T15:01:46.729Z,2.83
2022-11-18T15:04:14.002Z,3.70
2022-11-18T15:06:40.855Z,3.40
2022-11-18T15:09:08.207Z,5.67
2022-11-18T15:11:35.843Z,5.73
2022-11-18T15:14:03.425Z,4.63
2022-11-18T15:16:31.977Z,4.57
2022-11-18T15:19:01.155Z,4.60
2022-11-18T15:21:28.341Z,3.60
2022-11-18T15:23:55.120Z,4.63
2022-11-18T15:26:24.778Z,5.30
2022-11-18T15:28:53.812Z,4.50
2022-11-18T15:31:21.343Z,4.30
2022-11-18T15:33:51.270Z,5.10
2022-11-18T15:36:21.336Z,4.67
2022-11-18T15:38:49.005Z,4.53
2022-11-18T15:41:27.243Z,3.67
2022-11-18T15:43:56.122Z,3.63
2022-11-18T15:46:25.138Z,3.27
2022-11-18T15:48:53.323Z,5.27
2022-11-18T15:51:20.749Z,3.50
2022-11-18T15:53:47.695Z,3.00
2022-11-18T15:56:26.027Z,3.03
2022-11-18T15:58:56.684Z,3.87
2022-11-18T16:01:25.355Z,3.20
2022-11-18T16:03:52.306Z,3.57
2022-11-18T16:06:19.162Z,3.03
2022-11-18T16:08:45.929Z,3.50
2022-11-18T16:11:33.745Z,4.40
2022-11-18T16:14:05.137Z,4.33
2022-11-18T16:16:32.849Z,4.90
2022-11-18T16:19:01.740Z,5.30
2022-11-18T16:21:29.980Z,5.20
2022-11-18T16:23:58.198Z,6.00
2022-11-18T16:26:26.090Z,5.23
2022-11-18T16:28:53.852Z,3.20
2022-11-18T16:31:39.531Z,3.83
2022-11-18T16:34:28.723Z,4.10
2022-11-18T16:36:57.735Z,3.40
2022-11-18T16:39:27.130Z,3.10
2022-11-18T16:42:02.095Z,3.97
2022-11-18T16:44:33.377Z,3.40
2022-11-18T16:47:00.154Z,3.30
2022-11-18T16:49:28.068Z,3.60
2022-11-18T16:51:56.518Z,4.33
2022-11-18T16:54:28.823Z,3.87
2022-11-18T16:56:58.166Z,3.07
2022-11-18T16:59:29.506Z,3.20
2022-11-18T17:01:58.228Z,3.73
2022-11-18T17:04:26.283Z,3.30
2022-11-18T17:06:54.102Z,3.87
2022-11-18T17:09:23.702Z,3.57
2022-11-18T17:11:51.759Z,3.97
2022-11-18T17:14:19.689Z,3.83
2022-11-18T17:16:46.483Z,3.73
2022-11-18T17:19:15.782Z,4.50
2022-11-18T17:21:43.264Z,4.63
2022-11-18T17:24:12.367Z,5.40
2022-11-18T17:26:39.426Z,5.73
2022-11-18T17:29:06.338Z,6.73
2022-11-18T17:31:33.793Z,6.27
2022-11-18T17:34:00.586Z,7.13
2022-11-18T17:36:28.249Z,6.93
2022-11-18T17:38:56.533Z,7.30
2022-11-18T17:41:44.068Z,7.13
2022-11-18T17:44:13.572Z,6.27
2022-11-18T17:46:41.055Z,6.90
2022-11-18T17:49:16.480Z,7.60
2022-11-18T17:51:43.450Z,6.30
2022-11-18T17:54:10.368Z,6.20
2022-11-18T17:56:37.208Z,4.30
2022-11-18T17:59:04.330Z,5.60
2022-11-18T18:01:31.444Z,5.17
2022-11-18T18:03:58.367Z,6.63
2022-11-18T18:06:25.188Z,7.27
2022-11-18T18:08:58.874Z,6.77
2022-11-18T18:11:26.647Z,7.70
2022-11-18T18:14:12.357Z,6.80
2022-11-18T18:16:44.751Z,6.70
2022-11-18T18:19:14.400Z,5.60
2022-11-18T18:21:41.569Z,5.10
2022-11-18T18:24:09.104Z,5.20
2022-11-18T18:26:36.403Z,3.93
2022-11-18T18:29:03.868Z,4.90
2022-11-18T18:31:35.158Z,5.13
2022-11-18T18:34:02.097Z,6.17
2022-11-18T18:36:29.207Z,5.67
2022-11-18T18:38:57.825Z,4.90
2022-11-18T18:41:24.636Z,7.07
2022-11-18T18:43:51.411Z,7.40
2022-11-18T18:46:29.468Z,7.07
2022-11-18T18:48:57.580Z,7.23
2022-11-18T18:51:25.738Z,8.47
2022-11-18T18:53:52.957Z,7.77
2022-11-18T18:56:19.780Z,7.60
2022-11-18T18:58:46.627Z,8.30
2022-11-18T19:01:16.144Z,6.70
2022-11-18T19:03:43.860Z,7.13
2022-11-18T19:09:13.596Z,6.50
2022-11-18T19:11:59.271Z,6.83
2022-11-18T19:14:26.583Z,7.43
2022-11-18T19:16:53.795Z,9.17
2022-11-18T19:19:43.190Z,8.33
2022-11-18T19:22:11.756Z,6.87
2022-11-18T19:24:54.377Z,6.80
2022-11-18T19:27:21.801Z,7.20
2022-11-18T19:29:48.672Z,8.40
2022-11-18T19:32:15.764Z,10.53
2022-11-18T19:34:42.559Z,9.20
2022-11-18T19:37:09.356Z,8.00
2022-11-18T19:39:38.598Z,7.93
2022-11-18T19:42:05.802Z,12.57
2022-11-18T19:44:32.531Z,11.63
2022-11-18T19:46:59.303Z,10.97
2022-11-18T19:49:26.032Z,9.90
2022-11-18T19:51:52.799Z,10.33
2022-11-18T19:54:19.574Z,11.20
2022-11-18T19:56:46.353Z,10.80
2022-11-18T19:59:13.499Z,9.73
2022-11-18T20:01:40.688Z,9.60
2022-11-18T20:04:07.694Z,10.27
2022-11-18T20:06:36.032Z,8.87
2022-11-18T20:09:06.179Z,8.40
2022-11-18T20:11:32.954Z,9.80
2022-11-18T20:13:59.707Z,10.80
2022-11-18T20:16:26.653Z,13.33
2022-11-18T20:18:58.615Z,13.57
2022-11-18T20:21:27.201Z,17.97
2022-11-18T20:23:59.696Z,15.67
2022-11-18T20:26:28.708Z,14.00
2022-11-18T20:28:57.773Z,14.20
2022-11-18T20:31:26.002Z,12.77
2022-11-18T20:33:54.471Z,11.83
2022-11-18T20:36:33.188Z,8.30
2022-11-18T20:39:06.099Z,6.43
2022-11-18T20:41:33.241Z,5.37
2022-11-18T20:44:00.696Z,3.30
2022-11-18T20:46:27.706Z,2.70
2022-11-18T20:48:55.520Z,2.90
2022-11-18T20:51:24.887Z,2.50
2022-11-18T20:53:53.243Z,1.80
2022-11-18T20:56:22.510Z,1.47
2022-11-18T20:58:49.824Z,2.27
2022-11-18T21:01:25.861Z,1.30
2022-11-18T21:03:58.674Z,0.70
2022-11-18T21:06:31.417Z,1.07
2022-11-18T21:09:03.231Z,0.90
2022-11-18T21:11:30.739Z,1.00
2022-11-18T21:14:21.564Z,0.83
2022-11-18T21:16:50.564Z,1.07
2022-11-18T21:19:17.458Z,1.20
2022-11-18T21:21:44.509Z,1.00
2022-11-18T21:24:13.450Z,0.90
2022-11-18T21:26:40.883Z,1.50
2022-11-18T21:29:12.443Z,1.73
2022-11-18T21:31:39.866Z,2.80
2022-11-18T21:34:07.566Z,5.33
2022-11-18T21:36:34.583Z,11.80
2022-11-18T21:39:02.546Z,6.20
2022-11-18T21:41:29.909Z,5.23
2022-11-18T21:44:05.522Z,4.10
2022-11-18T21:46:34.436Z,5.93
2022-11-18T21:49:01.333Z,7.77
2022-11-18T21:51:28.313Z,6.93
2022-11-18T21:53:55.054Z,9.47
2022-11-18T21:56:25.247Z,10.10
2022-11-18T21:58:52.690Z,10.93
2022-11-18T22:01:25.310Z,11.30
2022-11-18T22:03:57.081Z,13.00
2022-11-18T22:06:25.511Z,13.83
2022-11-18T22:08:55.075Z,17.47
2022-11-18T22:11:22.575Z,18.80
2022-11-18T22:13:51.305Z,19.80
2022-11-18T22:16:20.353Z,22.07
2022-11-18T22:18:53.265Z,21.03
2022-11-18T22:21:23.874Z,23.30
2022-11-18T22:23:50.634Z,23.77
2022-11-18T22:26:21.485Z,22.60
2022-11-18T22:28:53.680Z,21.20
2022-11-18T22:31:21.802Z,23.10
2022-11-18T22:33:49.999Z,21.50
2022-11-18T22:36:19.059Z,22.50
2022-11-18T22:38:46.171Z,24.67
2022-11-18T22:41:34.466Z,21.83
2022-11-18T22:44:07.980Z,24.03
2022-11-18T22:46:36.168Z,23.57
2022-11-18T22:49:03.386Z,23.60
2022-11-18T22:51:30.158Z,22.07
2022-11-18T22:54:22.857Z,24.03
2022-11-18T22:56:43.804Z,24.17
2022-11-18T22:59:14.302Z,24.03
2022-11-18T23:01:41.216Z,26.27
2022-11-18T23:04:08.071Z,25.90
2022-11-18T23:06:35.568Z,28.27
2022-11-18T23:09:02.573Z,25.90
2022-11-18T23:11:48.596Z,26.33
2022-11-18T23:14:15.452Z,26.40
2022-11-18T23:16:43.340Z,25.00
2022-11-18T23:19:13.069Z,27.20
2022-11-18T23:21:41.118Z,28.80
2022-11-18T23:24:10.767Z,29.30
2022-11-18T23:26:38.216Z,30.00
2022-11-18T23:29:05.111Z,30.47
2022-11-18T23:31:31.893Z,27.40
2022-11-18T23:33:59.204Z,32.93
2022-11-18T23:36:26.771Z,30.70
2022-11-18T23:38:54.246Z,28.67
2022-11-18T23:43:53.237Z,31.27
2022-11-18T23:47:28.099Z,31.03
2022-11-18T23:49:54.914Z,32.30
2022-11-18T23:52:21.904Z,31.27
2022-11-18T23:55:01.629Z,34.80
2022-11-18T23:57:28.576Z,29.17
2022-11-18T23:59:55.419Z,32.03
